sensor_id;sensor_type;location;lat;lon;timestamp;temperature;humidity
8099;DHT22;4092;47.876;9.372;2023-03-01T00:01:13;-1.30;99.90
8099;DHT22;4092;47.876;9.372;2023-03-01T00:03:41;-1.30;99.90
8099;DHT22;4092;47.876;9.372;2023-03-01T00:06:08;-1.20;99.90
8099;DHT22;4092;47.876;9.372;2023-03-01T00:08:36;-1.20;99.90
8099;DHT22;4092;47.876;9.372;2023-03-01T00:11:05;-1.20;99.90
8099;DHT22;4092;47.876;9.372;2023-03-01T00:13:33;-1.20;99.90
8099;DHT22;4092;47.876;9.372;2023-03-01T00:16:03;-1.20;99.90
8099;DHT22;4092;47.876;9.372;2023-03-01T00:18:30;-1.20;99.90
8099;DHT22;4092;47.876;9.372;2023-03-01T00:20:57;-1.10;99.90
8099;DHT22;4092;47.876;9.372;2023-03-01T00:23:25;-1.20;99.90
8099;DHT22;4092;47.876;9.372;2023-03-01T00:25:52;-1.20;99.90
8099;DHT22;4092;47.876;9.372;2023-03-01T00:28:20;-1.10;99.90
8099;DHT22;4092;47.876;9.372;2023-03-01T00:30:47;-1.10;99.90
8099;DHT22;4092;47.876;9.372;2023-03-01T00:33:16;-1.10;99.90
8099;DHT22;4092;47.876;9.372;2023-03-01T00:35:43;-1.10;99.90
8099;DHT22;4092;47.876;9.372;2023-03-01T00:38:10;-1.10;99.90
8099;DHT22;4092;47.876;9.372;2023-03-01T00:40:37;-1.10;99.90
8099;DHT22;4092;47.876;9.372;2023-03-01T00:43:04;-1.10;99.90
8099;DHT22;4092;47.876;9.372;2023-03-01T00:45:32;-1.10;99.90
8099;DHT22;4092;47.876;9.372;2023-03-01T00:47:59;-1.20;99.90
8099;DHT22;4092;47.876;9.372;2023-03-01T00:50:28;-1.20;99.90
8099;DHT22;4092;47.876;9.372;2023-03-01T00:52:55;-1.20;99.90
8099;DHT22;4092;47.876;9.372;2023-03-01T00:55:23;-1.20;99.90
8099;DHT22;4092;47.876;9.372;2023-03-01T00:57:50;-1.20;99.90
8099;DHT22;4092;47.876;9.372;2023-03-01T01:00:18;-1.20;99.90
8099;DHT22;4092;47.876;9.372;2023-03-01T01:02:46;-1.20;99.90
8099;DHT22;4092;47.876;9.372;2023-03-01T01:05:13;-1.10;99.90
8099;DHT22;4092;47.876;9.372;2023-03-01T01:07:41;-1.10;99.90
8099;DHT22;4092;47.876;9.372;2023-03-01T01:10:09;-1.10;99.90
8099;DHT22;4092;47.876;9.372;2023-03-01T01:12:43;-1.20;99.90
8099;DHT22;4092;47.876;9.372;2023-03-01T01:15:10;-1.20;99.90
8099;DHT22;4092;47.876;9.372;2023-03-01T01:17:40;-1.20;99.90
8099;DHT22;4092;47.876;9.372;2023-03-01T01:20:08;-1.10;99.90
8099;DHT22;4092;47.876;9.372;2023-03-01T01:22:35;-1.10;99.90
8099;DHT22;4092;47.876;9.372;2023-03-01T01:25:04;-1.10;99.90
8099;DHT22;4092;47.876;9.372;2023-03-01T01:27:31;-1.10;99.90
8099;DHT22;4092;47.876;9.372;2023-03-01T01:29:58;-1.10;99.90
8099;DHT22;4092;47.876;9.372;2023-03-01T01:32:25;-1.10;99.90
8099;DHT22;4092;47.876;9.372;2023-03-01T01:34:52;-1.10;99.90
8099;DHT22;4092;47.876;9.372;2023-03-01T01:37:20;-1.10;99.90
8099;DHT22;4092;47.876;9.372;2023-03-01T01:39:47;-1.10;99.90
8099;DHT22;4092;47.876;9.372;2023-03-01T01:42:17;-1.10;99.90
8099;DHT22;4092;47.876;9.372;2023-03-01T01:44:46;-1.10;99.90
8099;DHT22;4092;47.876;9.372;2023-03-01T01:47:17;-1.10;99.90
8099;DHT22;4092;47.876;9.372;2023-03-01T01:49:47;-1.10;99.90
8099;DHT22;4092;47.876;9.372;2023-03-01T01:52:18;-1.10;99.90
8099;DHT22;4092;47.876;9.372;2023-03-01T01:54:49;-1.10;99.90
8099;DHT22;4092;47.876;9.372;2023-03-01T01:57:22;-1.10;99.90
8099;DHT22;4092;47.876;9.372;2023-03-01T01:59:53;-1.10;99.90
8099;DHT22;4092;47.876;9.372;2023-03-01T02:02:21;-1.10;99.90
8099;DHT22;4092;47.876;9.372;2023-03-01T02:04:50;-1.10;99.90
8099;DHT22;4092;47.876;9.372;2023-03-01T02:07:20;-1.10;99.90
8099;DHT22;4092;47.876;9.372;2023-03-01T02:09:52;-1.00;99.90
8099;DHT22;4092;47.876;9.372;2023-03-01T02:12:24;-1.00;99.90
8099;DHT22;4092;47.876;9.372;2023-03-01T02:14:51;-1.00;99.90
8099;DHT22;4092;47.876;9.372;2023-03-01T02:17:18;-1.00;99.90
8099;DHT22;4092;47.876;9.372;2023-03-01T02:19:53;-1.10;99.90
8099;DHT22;4092;47.876;9.372;2023-03-01T02:22:25;-1.10;99.90
8099;DHT22;4092;47.876;9.372;2023-03-01T02:25:04;-1.10;99.90
8099;DHT22;4092;47.876;9.372;2023-03-01T02:27:40;-1.10;99.90
8099;DHT22;4092;47.876;9.372;2023-03-01T02:30:13;-1.20;99.90
8099;DHT22;4092;47.876;9.372;2023-03-01T02:32:41;-1.20;99.90
8099;DHT22;4092;47.876;9.372;2023-03-01T02:35:09;-1.20;99.90
8099;DHT22;4092;47.876;9.372;2023-03-01T02:37:39;-1.20;99.90
8099;DHT22;4092;47.876;9.372;2023-03-01T02:40:09;-1.20;99.90
8099;DHT22;4092;47.876;9.372;2023-03-01T02:42:46;-1.20;99.90
8099;DHT22;4092;47.876;9.372;2023-03-01T02:45:15;-1.30;99.90
8099;DHT22;4092;47.876;9.372;2023-03-01T02:47:42;-1.30;99.90
8099;DHT22;4092;47.876;9.372;2023-03-01T02:50:18;-1.40;99.90
8099;DHT22;4092;47.876;9.372;2023-03-01T02:52:47;-1.30;99.90
8099;DHT22;4092;47.876;9.372;2023-03-01T02:55:18;-1.40;99.90
8099;DHT22;4092;47.876;9.372;2023-03-01T02:57:46;-1.30;99.90
8099;DHT22;4092;47.876;9.372;2023-03-01T03:00:20;-1.30;99.90
8099;DHT22;4092;47.876;9.372;2023-03-01T03:02:48;-1.30;99.90
8099;DHT22;4092;47.876;9.372;2023-03-01T03:05:18;-1.40;99.90
8099;DHT22;4092;47.876;9.372;2023-03-01T03:07:47;-1.40;99.90
8099;DHT22;4092;47.876;9.372;2023-03-01T03:10:17;-1.40;99.90
8099;DHT22;4092;47.876;9.372;2023-03-01T03:12:49;-1.40;99.90
8099;DHT22;4092;47.876;9.372;2023-03-01T03:15:17;-1.40;99.90
8099;DHT22;4092;47.876;9.372;2023-03-01T03:17:46;-1.40;99.90
8099;DHT22;4092;47.876;9.372;2023-03-01T03:20:15;-1.40;99.90
8099;DHT22;4092;47.876;9.372;2023-03-01T03:22:44;-1.40;99.90
8099;DHT22;4092;47.876;9.372;2023-03-01T03:25:11;-1.40;99.90
8099;DHT22;4092;47.876;9.372;2023-03-01T03:27:39;-1.40;99.90
8099;DHT22;4092;47.876;9.372;2023-03-01T03:30:08;-1.40;99.90
8099;DHT22;4092;47.876;9.372;2023-03-01T03:32:39;-1.40;99.90
8099;DHT22;4092;47.876;9.372;2023-03-01T03:35:07;-1.40;99.90
8099;DHT22;4092;47.876;9.372;2023-03-01T03:37:36;-1.50;99.90
8099;DHT22;4092;47.876;9.372;2023-03-01T03:40:21;-1.40;99.90
8099;DHT22;4092;47.876;9.372;2023-03-01T03:42:48;-1.40;99.90
8099;DHT22;4092;47.876;9.372;2023-03-01T03:45:15;-1.40;99.90
8099;DHT22;4092;47.876;9.372;2023-03-01T03:47:44;-1.30;99.90
8099;DHT22;4092;47.876;9.372;2023-03-01T03:50:13;-1.30;99.90
8099;DHT22;4092;47.876;9.372;2023-03-01T03:52:40;-1.40;99.90
8099;DHT22;4092;47.876;9.372;2023-03-01T03:55:09;-1.40;99.90
8099;DHT22;4092;47.876;9.372;2023-03-01T03:57:37;-1.30;99.90
8099;DHT22;4092;47.876;9.372;2023-03-01T04:00:06;-1.30;99.90
8099;DHT22;4092;47.876;9.372;2023-03-01T04:02:38;-1.30;99.90
8099;DHT22;4092;47.876;9.372;2023-03-01T04:05:08;-1.40;99.90
8099;DHT22;4092;47.876;9.372;2023-03-01T04:07:35;-1.30;99.90
8099;DHT22;4092;47.876;9.372;2023-03-01T04:10:04;-1.30;99.90
8099;DHT22;4092;47.876;9.372;2023-03-01T04:12:32;-1.30;99.90
8099;DHT22;4092;47.876;9.372;2023-03-01T04:14:59;-1.30;99.90
8099;DHT22;4092;47.876;9.372;2023-03-01T04:17:26;-1.30;99.90
8099;DHT22;4092;47.876;9.372;2023-03-01T04:19:53;-1.30;99.90
8099;DHT22;4092;47.876;9.372;2023-03-01T04:22:21;-1.30;99.90
8099;DHT22;4092;47.876;9.372;2023-03-01T04:24:55;-1.30;99.90
8099;DHT22;4092;47.876;9.372;2023-03-01T04:27:22;-1.40;99.90
8099;DHT22;4092;47.876;9.372;2023-03-01T04:29:49;-1.40;99.90
8099;DHT22;4092;47.876;9.372;2023-03-01T04:32:16;-1.40;99.90
8099;DHT22;4092;47.876;9.372;2023-03-01T04:34:44;-1.30;99.90
8099;DHT22;4092;47.876;9.372;2023-03-01T04:37:10;-1.40;99.90
8099;DHT22;4092;47.876;9.372;2023-03-01T04:39:39;-1.40;99.90
8099;DHT22;4092;47.876;9.372;2023-03-01T04:42:11;-1.40;99.90
8099;DHT22;4092;47.876;9.372;2023-03-01T04:44:38;-1.40;99.90
8099;DHT22;4092;47.876;9.372;2023-03-01T04:47:05;-1.40;99.90
8099;DHT22;4092;47.876;9.372;2023-03-01T04:49:32;-1.30;99.90
8099;DHT22;4092;47.876;9.372;2023-03-01T04:51:59;-1.30;99.90
8099;DHT22;4092;47.876;9.372;2023-03-01T04:54:27;-1.30;99.90
8099;DHT22;4092;47.876;9.372;2023-03-01T04:56:56;-1.40;99.90
8099;DHT22;4092;47.876;9.372;2023-03-01T04:59:23;-1.40;99.90
8099;DHT22;4092;47.876;9.372;2023-03-01T05:01:50;-1.30;99.90
8099;DHT22;4092;47.876;9.372;2023-03-01T05:04:17;-1.20;99.90
8099;DHT22;4092;47.876;9.372;2023-03-01T05:06:44;-1.30;99.90
8099;DHT22;4092;47.876;9.372;2023-03-01T05:09:11;-1.30;99.90
8099;DHT22;4092;47.876;9.372;2023-03-01T05:11:38;-1.30;99.90
8099;DHT22;4092;47.876;9.372;2023-03-01T05:14:07;-1.40;99.90
8099;DHT22;4092;47.876;9.372;2023-03-01T05:16:34;-1.40;99.90
8099;DHT22;4092;47.876;9.372;2023-03-01T05:19:02;-1.40;99.90
8099;DHT22;4092;47.876;9.372;2023-03-01T05:21:36;-1.40;99.90
8099;DHT22;4092;47.876;9.372;2023-03-01T05:24:24;-1.30;99.90
8099;DHT22;4092;47.876;9.372;2023-03-01T05:26:52;-1.40;99.90
8099;DHT22;4092;47.876;9.372;2023-03-01T05:29:21;-1.40;99.90
8099;DHT22;4092;47.876;9.372;2023-03-01T05:31:51;-1.40;99.90
8099;DHT22;4092;47.876;9.372;2023-03-01T05:34:19;-1.40;99.90
8099;DHT22;4092;47.876;9.372;2023-03-01T05:36:48;-1.40;99.90
8099;DHT22;4092;47.876;9.372;2023-03-01T05:39:16;-1.40;99.90
8099;DHT22;4092;47.876;9.372;2023-03-01T05:41:43;-1.40;99.90
8099;DHT22;4092;47.876;9.372;2023-03-01T05:44:10;-1.40;99.90
8099;DHT22;4092;47.876;9.372;2023-03-01T05:46:39;-1.30;99.90
8099;DHT22;4092;47.876;9.372;2023-03-01T05:49:06;-1.40;99.90
8099;DHT22;4092;47.876;9.372;2023-03-01T05:51:33;-1.40;99.90
8099;DHT22;4092;47.876;9.372;2023-03-01T05:54:00;-1.40;99.90
8099;DHT22;4092;47.876;9.372;2023-03-01T05:56:27;-1.40;99.90
8099;DHT22;4092;47.876;9.372;2023-03-01T05:58:54;-1.40;99.90
8099;DHT22;4092;47.876;9.372;2023-03-01T06:01:21;-1.40;99.90
8099;DHT22;4092;47.876;9.372;2023-03-01T06:03:49;-1.40;99.90
8099;DHT22;4092;47.876;9.372;2023-03-01T06:06:16;-1.30;99.90
8099;DHT22;4092;47.876;9.372;2023-03-01T06:08:43;-1.30;99.90
8099;DHT22;4092;47.876;9.372;2023-03-01T06:11:10;-1.40;99.90
8099;DHT22;4092;47.876;9.372;2023-03-01T06:13:37;-1.30;99.90
8099;DHT22;4092;47.876;9.372;2023-03-01T06:16:05;-1.30;99.90
8099;DHT22;4092;47.876;9.372;2023-03-01T06:18:32;-1.30;99.90
8099;DHT22;4092;47.876;9.372;2023-03-01T06:21:01;-1.40;99.90
8099;DHT22;4092;47.876;9.372;2023-03-01T06:23:28;-1.40;99.90
8099;DHT22;4092;47.876;9.372;2023-03-01T06:25:55;-1.40;99.90
8099;DHT22;4092;47.876;9.372;2023-03-01T06:28:21;-1.40;99.90
8099;DHT22;4092;47.876;9.372;2023-03-01T06:30:49;-1.40;99.90
8099;DHT22;4092;47.876;9.372;2023-03-01T06:33:17;-1.30;99.90
8099;DHT22;4092;47.876;9.372;2023-03-01T06:35:45;-1.40;99.90
8099;DHT22;4092;47.876;9.372;2023-03-01T06:38:14;-1.40;99.90
8099;DHT22;4092;47.876;9.372;2023-03-01T06:40:42;-1.40;99.90
8099;DHT22;4092;47.876;9.372;2023-03-01T06:43:09;-1.30;99.90
8099;DHT22;4092;47.876;9.372;2023-03-01T06:45:37;-1.40;99.90
8099;DHT22;4092;47.876;9.372;2023-03-01T06:48:05;-1.40;99.90
8099;DHT22;4092;47.876;9.372;2023-03-01T06:50:33;-1.20;99.90
8099;DHT22;4092;47.876;9.372;2023-03-01T06:53:04;-1.20;99.90
8099;DHT22;4092;47.876;9.372;2023-03-01T06:55:32;-1.10;99.90
8099;DHT22;4092;47.876;9.372;2023-03-01T06:58:00;-1.00;99.90
8099;DHT22;4092;47.876;9.372;2023-03-01T07:00:28;-1.00;99.90
8099;DHT22;4092;47.876;9.372;2023-03-01T07:02:57;-1.00;99.90
8099;DHT22;4092;47.876;9.372;2023-03-01T07:05:24;-1.00;99.90
8099;DHT22;4092;47.876;9.372;2023-03-01T07:07:53;-1.00;99.90
8099;DHT22;4092;47.876;9.372;2023-03-01T07:10:21;-1.00;99.90
8099;DHT22;4092;47.876;9.372;2023-03-01T07:12:49;-1.10;99.90
8099;DHT22;4092;47.876;9.372;2023-03-01T07:15:16;-1.10;99.90
8099;DHT22;4092;47.876;9.372;2023-03-01T07:17:43;-1.10;99.90
8099;DHT22;4092;47.876;9.372;2023-03-01T07:20:13;-1.10;99.90
8099;DHT22;4092;47.876;9.372;2023-03-01T07:22:40;-1.10;99.90
8099;DHT22;4092;47.876;9.372;2023-03-01T07:25:09;-1.00;99.90
8099;DHT22;4092;47.876;9.372;2023-03-01T07:27:36;-1.00;99.90
8099;DHT22;4092;47.876;9.372;2023-03-01T07:30:06;-1.00;99.90
8099;DHT22;4092;47.876;9.372;2023-03-01T07:32:33;-1.00;99.90
8099;DHT22;4092;47.876;9.372;2023-03-01T07:35:00;-1.00;99.90
8099;DHT22;4092;47.876;9.372;2023-03-01T07:37:27;-1.00;99.90
8099;DHT22;4092;47.876;9.372;2023-03-01T07:39:54;-1.10;99.90
8099;DHT22;4092;47.876;9.372;2023-03-01T07:42:21;-1.00;99.90
8099;DHT22;4092;47.876;9.372;2023-03-01T07:44:48;-1.00;99.90
8099;DHT22;4092;47.876;9.372;2023-03-01T07:47:16;-1.00;99.90
8099;DHT22;4092;47.876;9.372;2023-03-01T07:49:43;-1.00;99.90
8099;DHT22;4092;47.876;9.372;2023-03-01T07:52:11;-1.00;99.90
8099;DHT22;4092;47.876;9.372;2023-03-01T07:54:38;-1.00;99.90
8099;DHT22;4092;47.876;9.372;2023-03-01T07:57:05;-1.00;99.90
8099;DHT22;4092;47.876;9.372;2023-03-01T07:59:32;-1.00;99.90
8099;DHT22;4092;47.876;9.372;2023-03-01T08:01:59;-1.00;99.90
8099;DHT22;4092;47.876;9.372;2023-03-01T08:04:27;-0.90;99.90
8099;DHT22;4092;47.876;9.372;2023-03-01T08:06:55;-0.90;99.90
8099;DHT22;4092;47.876;9.372;2023-03-01T08:09:22;-0.90;99.90
8099;DHT22;4092;47.876;9.372;2023-03-01T08:11:49;-0.80;99.90
8099;DHT22;4092;47.876;9.372;2023-03-01T08:14:16;-0.90;99.90
8099;DHT22;4092;47.876;9.372;2023-03-01T08:16:43;-0.80;99.90
8099;DHT22;4092;47.876;9.372;2023-03-01T08:19:12;-0.80;99.90
8099;DHT22;4092;47.876;9.372;2023-03-01T08:21:40;-0.80;99.90
8099;DHT22;4092;47.876;9.372;2023-03-01T08:24:08;-0.80;99.90
8099;DHT22;4092;47.876;9.372;2023-03-01T08:26:36;-0.70;99.90
8099;DHT22;4092;47.876;9.372;2023-03-01T08:29:03;-0.70;99.90
8099;DHT22;4092;47.876;9.372;2023-03-01T08:31:33;-0.70;99.90
8099;DHT22;4092;47.876;9.372;2023-03-01T08:34:02;-0.80;99.90
8099;DHT22;4092;47.876;9.372;2023-03-01T08:36:31;-0.80;99.90
8099;DHT22;4092;47.876;9.372;2023-03-01T08:39:00;-0.80;99.90
8099;DHT22;4092;47.876;9.372;2023-03-01T08:41:27;-0.90;99.90
8099;DHT22;4092;47.876;9.372;2023-03-01T08:43:55;-0.80;99.90
8099;DHT22;4092;47.876;9.372;2023-03-01T08:46:24;-0.90;99.90
8099;DHT22;4092;47.876;9.372;2023-03-01T08:48:52;-0.90;99.90
8099;DHT22;4092;47.876;9.372;2023-03-01T08:51:20;-0.80;99.90
8099;DHT22;4092;47.876;9.372;2023-03-01T08:53:47;-0.80;99.90
8099;DHT22;4092;47.876;9.372;2023-03-01T08:56:16;-0.80;99.90
8099;DHT22;4092;47.876;9.372;2023-03-01T08:58:45;-0.80;99.90
8099;DHT22;4092;47.876;9.372;2023-03-01T09:01:14;-0.80;99.90
8099;DHT22;4092;47.876;9.372;2023-03-01T09:03:42;-0.70;99.90
8099;DHT22;4092;47.876;9.372;2023-03-01T09:06:09;-0.70;99.90
8099;DHT22;4092;47.876;9.372;2023-03-01T09:08:37;-0.70;99.90
8099;DHT22;4092;47.876;9.372;2023-03-01T09:11:05;-0.70;99.90
8099;DHT22;4092;47.876;9.372;2023-03-01T09:13:34;-0.70;99.90
8099;DHT22;4092;47.876;9.372;2023-03-01T09:16:03;-0.70;99.90
8099;DHT22;4092;47.876;9.372;2023-03-01T09:18:30;-0.70;99.90
8099;DHT22;4092;47.876;9.372;2023-03-01T09:21:01;-0.60;99.90
8099;DHT22;4092;47.876;9.372;2023-03-01T09:23:33;-0.60;99.90
8099;DHT22;4092;47.876;9.372;2023-03-01T09:26:02;-0.60;99.90
8099;DHT22;4092;47.876;9.372;2023-03-01T09:28:29;-0.60;99.90
8099;DHT22;4092;47.876;9.372;2023-03-01T09:30:59;-0.60;99.90
8099;DHT22;4092;47.876;9.372;2023-03-01T09:33:27;-0.50;99.90
8099;DHT22;4092;47.876;9.372;2023-03-01T09:35:57;-0.60;99.90
8099;DHT22;4092;47.876;9.372;2023-03-01T09:38:24;-0.50;99.90
8099;DHT22;4092;47.876;9.372;2023-03-01T09:40:51;-0.50;99.90
8099;DHT22;4092;47.876;9.372;2023-03-01T09:43:23;-0.40;99.90
8099;DHT22;4092;47.876;9.372;2023-03-01T09:45:54;-0.40;99.90
8099;DHT22;4092;47.876;9.372;2023-03-01T09:48:27;-0.40;99.90
8099;DHT22;4092;47.876;9.372;2023-03-01T09:50:56;-0.40;99.90
8099;DHT22;4092;47.876;9.372;2023-03-01T09:53:27;-0.50;99.90
8099;DHT22;4092;47.876;9.372;2023-03-01T09:56:00;-0.40;99.90
8099;DHT22;4092;47.876;9.372;2023-03-01T09:58:37;-0.50;99.90
8099;DHT22;4092;47.876;9.372;2023-03-01T10:01:26;-0.50;99.90
8099;DHT22;4092;47.876;9.372;2023-03-01T10:04:32;-0.60;99.90
8099;DHT22;4092;47.876;9.372;2023-03-01T10:07:17;-0.60;99.90
8099;DHT22;4092;47.876;9.372;2023-03-01T10:09:48;-0.50;99.90
8099;DHT22;4092;47.876;9.372;2023-03-01T10:12:17;-0.40;99.90
8099;DHT22;4092;47.876;9.372;2023-03-01T10:14:53;-0.30;99.90
8099;DHT22;4092;47.876;9.372;2023-03-01T10:17:27;-0.30;99.90
8099;DHT22;4092;47.876;9.372;2023-03-01T10:22:52;-0.20;99.90
8099;DHT22;4092;47.876;9.372;2023-03-01T10:25:30;-0.10;99.90
8099;DHT22;4092;47.876;9.372;2023-03-01T11:03:28;-0.30;99.90
8099;DHT22;4092;47.876;9.372;2023-03-01T11:06:04;0.10;99.90
8099;DHT22;4092;47.876;9.372;2023-03-01T11:08:37;0.10;99.90
8099;DHT22;4092;47.876;9.372;2023-03-01T11:11:09;0.00;99.90
8099;DHT22;4092;47.876;9.372;2023-03-01T11:13:52;0.10;99.90
8099;DHT22;4092;47.876;9.372;2023-03-01T11:16:29;0.20;99.90
8099;DHT22;4092;47.876;9.372;2023-03-01T11:19:03;0.20;99.90
8099;DHT22;4092;47.876;9.372;2023-03-01T11:21:33;0.20;99.90
8099;DHT22;4092;47.876;9.372;2023-03-01T11:24:03;0.10;99.90
8099;DHT22;4092;47.876;9.372;2023-03-01T11:26:31;0.10;99.90
8099;DHT22;4092;47.876;9.372;2023-03-01T11:29:06;0.10;99.90
8099;DHT22;4092;47.876;9.372;2023-03-01T11:31:39;0.10;99.90
8099;DHT22;4092;47.876;9.372;2023-03-01T11:34:12;0.20;99.90
8099;DHT22;4092;47.876;9.372;2023-03-01T11:36:44;0.20;99.90
8099;DHT22;4092;47.876;9.372;2023-03-01T11:39:21;0.20;99.90
8099;DHT22;4092;47.876;9.372;2023-03-01T11:42:01;0.20;99.90
8099;DHT22;4092;47.876;9.372;2023-03-01T11:44:33;0.30;99.90
8099;DHT22;4092;47.876;9.372;2023-03-01T11:47:28;0.40;99.90
8099;DHT22;4092;47.876;9.372;2023-03-01T11:50:13;0.40;99.90
8099;DHT22;4092;47.876;9.372;2023-03-01T11:52:50;0.40;99.90
8099;DHT22;4092;47.876;9.372;2023-03-01T11:55:28;0.40;99.90
8099;DHT22;4092;47.876;9.372;2023-03-01T11:58:19;0.40;99.90
8099;DHT22;4092;47.876;9.372;2023-03-01T12:01:08;0.40;99.90
8099;DHT22;4092;47.876;9.372;2023-03-01T12:03:46;0.50;99.90
8099;DHT22;4092;47.876;9.372;2023-03-01T12:06:35;0.60;99.90
8099;DHT22;4092;47.876;9.372;2023-03-01T12:09:15;0.60;99.90
8099;DHT22;4092;47.876;9.372;2023-03-01T12:12:04;0.50;99.90
8099;DHT22;4092;47.876;9.372;2023-03-01T12:14:46;0.70;99.90
8099;DHT22;4092;47.876;9.372;2023-03-01T12:17:41;0.70;99.90
8099;DHT22;4092;47.876;9.372;2023-03-01T12:20:24;0.80;99.90
8099;DHT22;4092;47.876;9.372;2023-03-01T12:23:05;0.80;99.90
8099;DHT22;4092;47.876;9.372;2023-03-01T12:25:39;0.90;99.90
8099;DHT22;4092;47.876;9.372;2023-03-01T12:28:24;0.90;99.90
8099;DHT22;4092;47.876;9.372;2023-03-01T12:31:23;0.80;99.90
8099;DHT22;4092;47.876;9.372;2023-03-01T12:34:01;0.70;99.90
8099;DHT22;4092;47.876;9.372;2023-03-01T12:39:38;0.80;99.90
8099;DHT22;4092;47.876;9.372;2023-03-01T12:42:18;0.80;99.90
8099;DHT22;4092;47.876;9.372;2023-03-01T12:45:02;0.80;99.90
8099;DHT22;4092;47.876;9.372;2023-03-01T12:47:43;0.90;99.90
8099;DHT22;4092;47.876;9.372;2023-03-01T12:50:18;0.90;99.90
8099;DHT22;4092;47.876;9.372;2023-03-01T12:52:49;1.00;99.90
8099;DHT22;4092;47.876;9.372;2023-03-01T12:55:26;0.90;99.90
8099;DHT22;4092;47.876;9.372;2023-03-01T12:58:02;0.90;99.90
8099;DHT22;4092;47.876;9.372;2023-03-01T13:00:35;0.90;99.90
8099;DHT22;4092;47.876;9.372;2023-03-01T13:03:12;0.90;99.90
8099;DHT22;4092;47.876;9.372;2023-03-01T13:05:52;0.90;99.90
8099;DHT22;4092;47.876;9.372;2023-03-01T13:08:29;1.00;99.90
8099;DHT22;4092;47.876;9.372;2023-03-01T13:11:03;1.00;99.90
8099;DHT22;4092;47.876;9.372;2023-03-01T13:13:30;1.10;99.90
8099;DHT22;4092;47.876;9.372;2023-03-01T13:15:57;1.10;99.90
8099;DHT22;4092;47.876;9.372;2023-03-01T13:18:44;1.10;99.90
8099;DHT22;4092;47.876;9.372;2023-03-01T13:21:12;1.20;99.90
8099;DHT22;4092;47.876;9.372;2023-03-01T13:23:39;1.10;99.90
8099;DHT22;4092;47.876;9.372;2023-03-01T13:26:16;1.10;99.90
8099;DHT22;4092;47.876;9.372;2023-03-01T13:28:49;1.10;99.90
8099;DHT22;4092;47.876;9.372;2023-03-01T13:34:57;1.10;99.90
8099;DHT22;4092;47.876;9.372;2023-03-01T13:37:37;1.10;99.90
8099;DHT22;4092;47.876;9.372;2023-03-01T13:43:27;1.20;99.90
8099;DHT22;4092;47.876;9.372;2023-03-01T13:45:54;1.30;99.90
8099;DHT22;4092;47.876;9.372;2023-03-01T13:48:24;1.20;99.90
8099;DHT22;4092;47.876;9.372;2023-03-01T13:50:57;1.30;99.90
8099;DHT22;4092;47.876;9.372;2023-03-01T13:53:28;1.20;99.90
8099;DHT22;4092;47.876;9.372;2023-03-01T13:55:58;1.30;99.90
8099;DHT22;4092;47.876;9.372;2023-03-01T13:58:29;1.30;99.90
8099;DHT22;4092;47.876;9.372;2023-03-01T14:00:59;1.20;99.90
8099;DHT22;4092;47.876;9.372;2023-03-01T14:03:27;1.20;99.90
8099;DHT22;4092;47.876;9.372;2023-03-01T14:06:04;1.20;99.90
8099;DHT22;4092;47.876;9.372;2023-03-01T14:08:34;1.30;99.90
8099;DHT22;4092;47.876;9.372;2023-03-01T14:14:29;1.50;99.90
8099;DHT22;4092;47.876;9.372;2023-03-01T14:17:17;1.60;99.90
8099;DHT22;4092;47.876;9.372;2023-03-01T14:19:48;1.80;99.90
8099;DHT22;4092;47.876;9.372;2023-03-01T14:22:23;1.90;99.90
8099;DHT22;4092;47.876;9.372;2023-03-01T14:24:52;1.90;99.90
8099;DHT22;4092;47.876;9.372;2023-03-01T14:27:20;1.80;99.90
8099;DHT22;4092;47.876;9.372;2023-03-01T14:29:56;1.70;99.90
8099;DHT22;4092;47.876;9.372;2023-03-01T14:32:25;1.80;99.90
8099;DHT22;4092;47.876;9.372;2023-03-01T14:34:53;1.90;99.90
8099;DHT22;4092;47.876;9.372;2023-03-01T14:37:22;2.20;99.90
8099;DHT22;4092;47.876;9.372;2023-03-01T14:39:50;2.70;99.90
8099;DHT22;4092;47.876;9.372;2023-03-01T14:42:19;3.00;99.90
8099;DHT22;4092;47.876;9.372;2023-03-01T14:44:49;2.90;99.90
8099;DHT22;4092;47.876;9.372;2023-03-01T14:47:26;2.70;99.90
8099;DHT22;4092;47.876;9.372;2023-03-01T14:49:57;2.60;99.90
8099;DHT22;4092;47.876;9.372;2023-03-01T14:52:33;2.40;99.90
8099;DHT22;4092;47.876;9.372;2023-03-01T14:55:03;2.20;99.90
8099;DHT22;4092;47.876;9.372;2023-03-01T14:57:31;2.20;99.90
8099;DHT22;4092;47.876;9.372;2023-03-01T15:00:00;2.20;99.90
8099;DHT22;4092;47.876;9.372;2023-03-01T15:02:32;2.10;99.90
8099;DHT22;4092;47.876;9.372;2023-03-01T15:05:02;2.20;99.90
8099;DHT22;4092;47.876;9.372;2023-03-01T15:07:33;2.20;99.90
8099;DHT22;4092;47.876;9.372;2023-03-01T15:10:01;2.40;99.90
8099;DHT22;4092;47.876;9.372;2023-03-01T15:12:36;2.70;99.90
8099;DHT22;4092;47.876;9.372;2023-03-01T15:15:19;2.90;99.90
8099;DHT22;4092;47.876;9.372;2023-03-01T15:17:51;3.10;99.90
8099;DHT22;4092;47.876;9.372;2023-03-01T15:20:20;3.20;99.90
8099;DHT22;4092;47.876;9.372;2023-03-01T15:22:51;3.00;99.90
8099;DHT22;4092;47.876;9.372;2023-03-01T15:25:21;2.90;99.90
8099;DHT22;4092;47.876;9.372;2023-03-01T15:27:49;2.80;99.90
8099;DHT22;4092;47.876;9.372;2023-03-01T15:30:20;2.70;99.90
8099;DHT22;4092;47.876;9.372;2023-03-01T15:32:49;2.70;99.90
8099;DHT22;4092;47.876;9.372;2023-03-01T15:35:45;2.60;99.90
8099;DHT22;4092;47.876;9.372;2023-03-01T15:38:28;2.90;99.90
8099;DHT22;4092;47.876;9.372;2023-03-01T15:40:56;3.30;99.90
8099;DHT22;4092;47.876;9.372;2023-03-01T15:43:42;3.70;99.90
8099;DHT22;4092;47.876;9.372;2023-03-01T15:46:22;4.00;99.90
8099;DHT22;4092;47.876;9.372;2023-03-01T15:48:53;4.40;99.90
8099;DHT22;4092;47.876;9.372;2023-03-01T15:51:33;4.40;99.90
8099;DHT22;4092;47.876;9.372;2023-03-01T15:54:03;4.60;99.90
8099;DHT22;4092;47.876;9.372;2023-03-01T15:56:31;4.50;99.90
8099;DHT22;4092;47.876;9.372;2023-03-01T15:59:00;4.70;99.90
8099;DHT22;4092;47.876;9.372;2023-03-01T16:01:28;4.80;99.90
8099;DHT22;4092;47.876;9.372;2023-03-01T16:03:57;5.10;99.90
8099;DHT22;4092;47.876;9.372;2023-03-01T16:06:25;5.10;99.90
8099;DHT22;4092;47.876;9.372;2023-03-01T16:08:52;5.30;99.90
8099;DHT22;4092;47.876;9.372;2023-03-01T16:11:20;5.20;99.90
8099;DHT22;4092;47.876;9.372;2023-03-01T16:13:47;4.90;99.90
8099;DHT22;4092;47.876;9.372;2023-03-01T16:16:16;4.60;99.90
8099;DHT22;4092;47.876;9.372;2023-03-01T16:18:45;4.20;99.90
8099;DHT22;4092;47.876;9.372;2023-03-01T16:21:15;3.80;99.90
8099;DHT22;4092;47.876;9.372;2023-03-01T16:23:43;3.60;99.90
8099;DHT22;4092;47.876;9.372;2023-03-01T16:26:11;3.30;99.90
8099;DHT22;4092;47.876;9.372;2023-03-01T16:28:39;3.20;99.90
8099;DHT22;4092;47.876;9.372;2023-03-01T16:31:06;3.00;99.90
8099;DHT22;4092;47.876;9.372;2023-03-01T16:33:33;2.80;99.90
8099;DHT22;4092;47.876;9.372;2023-03-01T16:36:00;2.60;99.90
8099;DHT22;4092;47.876;9.372;2023-03-01T16:38:31;2.40;99.90
8099;DHT22;4092;47.876;9.372;2023-03-01T16:40:58;2.30;99.90
8099;DHT22;4092;47.876;9.372;2023-03-01T16:43:25;2.10;99.90
8099;DHT22;4092;47.876;9.372;2023-03-01T16:45:53;2.00;99.90
8099;DHT22;4092;47.876;9.372;2023-03-01T16:48:19;1.90;99.90
8099;DHT22;4092;47.876;9.372;2023-03-01T16:50:56;1.90;99.90
8099;DHT22;4092;47.876;9.372;2023-03-01T16:53:23;1.80;99.90
8099;DHT22;4092;47.876;9.372;2023-03-01T16:55:54;1.70;99.90
8099;DHT22;4092;47.876;9.372;2023-03-01T16:58:22;1.60;99.90
8099;DHT22;4092;47.876;9.372;2023-03-01T17:00:50;1.50;99.90
8099;DHT22;4092;47.876;9.372;2023-03-01T17:03:19;1.50;99.90
8099;DHT22;4092;47.876;9.372;2023-03-01T17:05:46;1.40;99.90
8099;DHT22;4092;47.876;9.372;2023-03-01T17:08:13;1.30;99.90
8099;DHT22;4092;47.876;9.372;2023-03-01T17:10:40;1.30;99.90
8099;DHT22;4092;47.876;9.372;2023-03-01T17:13:09;1.30;99.90
8099;DHT22;4092;47.876;9.372;2023-03-01T17:15:38;1.20;99.90
8099;DHT22;4092;47.876;9.372;2023-03-01T17:18:06;1.20;99.90
8099;DHT22;4092;47.876;9.372;2023-03-01T17:20:34;1.20;99.90